메인 페이지
METAR-TAF:

METAR-TAF

공항 :

Fort Lauderdale Executive Airport

포트로더데일, 플로리다, 미국

위도: 26-12-00N, 경도: 080-11-00W, 고도: 4m

현재 날씨관측

예보는 23분 전, 15:53시(UTC)에 발표되었습니다.
무풍
온도 33°C
습도 56%
기압 1017 hPa
시정: 16.1km
고도 2900ft 상공 구름 보통
고도 3700ft 상공 구름 보통
고도 5500ft 상공 구름 많음

METAR: KFXE 061553Z 00000KT 10SM SCT029 SCT037 BKN055 33/23 A3004 RMK AO2 SLP176 T03280228

시각: 12:16 (16:16 UTC)

예보

예보는 1 시간 25분 전, 14:51시(UTC)에 발표되었습니다.
예보 대상 시간: 06일 15시부터 07일 12시까지 (UTC)
남동6kt
시정: 10km
고도 2000ft 상공 구름 보통
시계 내 소나기
06일 1700시부터 (UTC)
동남동8kt
시정: 10km
고도 2500ft 상공 구름 보통, 적란운.
고도 6000ft 상공 구름 많음
시계 내 뇌우
일시적
06일 18시부터 06일 22시까지 (UTC)
시정: 6.4km
고도 2500ft 상공 구름 많음, 적란운.
뇌우, 비
07일 0200시부터 (UTC)
여러 방향의 바람 3kt
시정: 10km
고도 3000ft 상공 구름 보통
고도 25000ft 상공 구름 많음

TAF: KFXE 061451Z 0615/0712 14006KT P6SM VCSH SCT020 FM061700 12008KT P6SM VCTS SCT025CB BKN060 TEMPO 0618/0622 4SM TSRA BKN025CB FM070200 VRB03KT P6SM SCT030 BKN250

4,000개 이상의 공항 관측 자료 및 예보 (METAR 및 TAF 보고).

지도상에서 검색 가능한 기상관측소가 노란 점과 빨간 점으로 표시되어 있습니다.

기상관측소 명을 보려면 표시 위로 마우스를 이동하세요.

날씨 관측과 예보를 보려면 클릭하세요.

지도 변경 : 확대하려면 엑스 표시가 있는 녹색 버튼, 축소하려면 빼기 표시가 있는 녹색 버튼, 다음 페이지의 지도를 보려면 녹색 화살표를 클릭하세요.


METAR-TAF: